createdAt,value
2017-01-06T00:00:46.798Z,10.23
2017-01-06T00:01:46.730Z,10.42
2017-01-06T00:02:46.669Z,10.42
2017-01-06T00:03:46.605Z,10.33
2017-01-06T00:04:46.572Z,10.42
2017-01-06T00:05:46.485Z,10.72
2017-01-06T00:06:46.422Z,10.42
2017-01-06T00:07:46.357Z,10.42
2017-01-06T00:08:46.312Z,10.33
2017-01-06T00:09:46.237Z,10.33
2017-01-06T00:10:46.175Z,10.33
2017-01-06T00:11:46.113Z,10.23
2017-01-06T00:12:46.049Z,10.42
2017-01-06T00:13:45.988Z,10.23
2017-01-06T00:14:45.924Z,10.52
2017-01-06T00:15:45.864Z,10.33
2017-01-06T00:16:45.802Z,10.23
2017-01-06T00:17:45.740Z,10.23
2017-01-06T00:18:45.675Z,10.42
2017-01-06T00:19:45.621Z,10.33
2017-01-06T00:20:45.552Z,10.23
2017-01-06T00:21:45.494Z,10.23
2017-01-06T00:22:45.428Z,10.23
2017-01-06T00:23:45.368Z,10.52
2017-01-06T00:24:45.304Z,10.23
2017-01-06T00:25:45.242Z,10.23
2017-01-06T00:26:45.181Z,10.33
2017-01-06T00:27:45.117Z,10.33
2017-01-06T00:28:45.059Z,10.23
2017-01-06T00:29:44.993Z,10.23
2017-01-06T00:30:44.934Z,10.23
2017-01-06T00:31:44.868Z,10.23
2017-01-06T00:32:44.806Z,10.42
2017-01-06T00:33:44.746Z,10.23
2017-01-06T00:34:44.714Z,10.23
2017-01-06T00:35:44.622Z,10.23
2017-01-06T00:36:44.560Z,10.33
2017-01-06T00:37:44.499Z,10.42
2017-01-06T00:38:44.441Z,10.42
2017-01-06T00:39:44.372Z,10.33
2017-01-06T00:40:44.321Z,10.33
2017-01-06T00:41:44.249Z,10.33
2017-01-06T00:42:44.209Z,10.33
2017-01-06T00:43:44.125Z,10.33
2017-01-06T00:44:44.063Z,10.23
2017-01-06T00:45:44.001Z,10.33
2017-01-06T00:46:43.939Z,10.33
2017-01-06T00:47:43.877Z,10.23
2017-01-06T00:48:43.827Z,10.33
2017-01-06T00:49:43.750Z,10.33
2017-01-06T00:50:44.089Z,10.42
2017-01-06T00:51:43.626Z,10.42
2017-01-06T00:52:43.570Z,10.33
2017-01-06T00:53:43.506Z,10.33
2017-01-06T00:54:43.441Z,10.42
2017-01-06T00:55:43.377Z,10.33
2017-01-06T00:56:43.315Z,10.42
2017-01-06T00:57:43.650Z,10.33
2017-01-06T00:58:43.191Z,10.23
2017-01-06T00:59:43.131Z,10.14
2017-01-06T01:01:12.398Z,10.23
2017-01-06T01:02:12.340Z,10.23
2017-01-06T01:03:12.294Z,10.23
2017-01-06T01:04:12.212Z,10.23
2017-01-06T01:05:12.147Z,10.23
2017-01-06T01:06:12.086Z,10.23
2017-01-06T01:07:12.025Z,10.33
2017-01-06T01:08:12.350Z,10.14
2017-01-06T01:09:11.897Z,10.14
2017-01-06T01:10:11.838Z,10.23
2017-01-06T01:11:11.777Z,10.62
2017-01-06T01:12:12.103Z,10.42
2017-01-06T01:13:11.649Z,10.62
2017-01-06T01:14:11.588Z,10.42
2017-01-06T01:15:11.526Z,10.52
2017-01-06T01:16:11.465Z,10.42
2017-01-06T01:17:11.400Z,10.52
2017-01-06T01:18:11.339Z,10.52
2017-01-06T01:19:11.279Z,10.42
2017-01-06T01:20:11.214Z,10.52
2017-01-06T01:21:11.151Z,10.23
2017-01-06T01:22:11.089Z,10.42
2017-01-06T01:23:11.024Z,10.23
2017-01-06T01:24:10.966Z,10.42
2017-01-06T01:25:10.904Z,10.42
2017-01-06T01:26:10.841Z,10.42
2017-01-06T01:27:10.778Z,10.52
2017-01-06T01:28:10.715Z,10.42
2017-01-06T01:29:10.660Z,10.52
2017-01-06T01:30:10.592Z,10.33
2017-01-06T01:31:10.525Z,10.52
2017-01-06T01:32:10.465Z,10.42
2017-01-06T01:33:10.401Z,10.81
2017-01-06T01:34:10.341Z,10.52
2017-01-06T01:35:10.279Z,10.81
2017-01-06T01:36:10.215Z,10.72
2017-01-06T01:37:10.153Z,10.91
2017-01-06T01:38:10.093Z,10.33
2017-01-06T01:39:10.040Z,10.42
2017-01-06T01:40:09.968Z,10.23
2017-01-06T01:41:09.904Z,10.32
2017-01-06T01:42:09.842Z,10.52
2017-01-06T01:43:09.781Z,10.91
2017-01-06T01:44:09.717Z,10.42
2017-01-06T01:45:09.660Z,10.52
2017-01-06T01:46:09.592Z,10.42
2017-01-06T01:47:09.532Z,10.72
2017-01-06T01:48:09.468Z,10.33
2017-01-06T01:49:09.412Z,10.62
2017-01-06T01:50:09.346Z,10.52
2017-01-06T01:51:09.282Z,10.33
2017-01-06T01:52:09.220Z,10.52
2017-01-06T01:53:09.164Z,10.42
2017-01-06T01:54:09.097Z,10.33
2017-01-06T01:55:09.035Z,10.42
2017-01-06T01:56:08.977Z,10.33
2017-01-06T01:57:08.910Z,10.33
2017-01-06T01:58:08.851Z,10.42
2017-01-06T01:59:08.786Z,10.42
2017-01-06T02:00:08.724Z,10.52
2017-01-06T02:01:08.664Z,10.72
2017-01-06T02:02:08.601Z,10.62
2017-01-06T02:03:08.539Z,10.91
2017-01-06T02:04:08.477Z,10.52
2017-01-06T02:05:08.414Z,10.33
2017-01-06T02:06:08.353Z,10.81
2017-01-06T02:07:08.292Z,10.62
2017-01-06T02:08:08.621Z,10.72
2017-01-06T02:09:08.167Z,10.62
2017-01-06T02:10:08.104Z,10.81
2017-01-06T02:11:08.045Z,10.72
2017-01-06T02:12:07.983Z,10.62
2017-01-06T02:13:07.917Z,10.33
2017-01-06T02:14:07.857Z,10.42
2017-01-06T02:15:07.799Z,10.23
2017-01-06T02:16:07.734Z,10.33
2017-01-06T02:17:07.671Z,10.72
2017-01-06T02:18:07.609Z,10.91
2017-01-06T02:19:07.549Z,10.91
2017-01-06T02:20:07.483Z,11.1
2017-01-06T02:21:07.421Z,11
2017-01-06T02:22:07.366Z,11.2
2017-01-06T02:23:07.298Z,11.2
2017-01-06T02:24:07.241Z,11.1
2017-01-06T02:25:07.173Z,11
2017-01-06T02:26:07.114Z,11.1
2017-01-06T02:27:07.049Z,10.81
2017-01-06T02:28:06.987Z,11.1
2017-01-06T02:29:06.928Z,10.91
2017-01-06T02:30:06.866Z,10.91
2017-01-06T02:31:06.805Z,10.81
2017-01-06T02:32:06.744Z,10.72
2017-01-06T02:33:06.679Z,10.81
2017-01-06T02:34:06.621Z,10.81
2017-01-06T02:35:06.554Z,10.72
2017-01-06T02:36:06.493Z,10.81
2017-01-06T02:37:06.432Z,11.29
2017-01-06T02:38:06.370Z,11.29
2017-01-06T02:39:06.308Z,11.29
2017-01-06T02:40:06.244Z,10.72
2017-01-06T02:41:06.185Z,11.2
2017-01-06T02:42:06.123Z,10.81
2017-01-06T02:43:06.058Z,11.2
2017-01-06T02:44:05.995Z,11.29
2017-01-06T02:45:05.942Z,11.29
2017-01-06T02:46:05.873Z,11.2
2017-01-06T02:47:05.809Z,11.1
2017-01-06T02:48:05.747Z,11.1
2017-01-06T02:49:05.689Z,11
2017-01-06T02:50:05.626Z,10.72
2017-01-06T02:51:05.562Z,11.29
2017-01-06T02:52:05.502Z,10.72
2017-01-06T02:53:05.437Z,10.81
2017-01-06T02:54:05.386Z,10.72
2017-01-06T02:55:05.314Z,11.1
2017-01-06T02:56:05.254Z,10.72
2017-01-06T02:57:05.187Z,10.72
2017-01-06T02:58:05.127Z,10.81
2017-01-06T02:59:05.068Z,10.91
2017-01-06T03:00:05.003Z,10.81
2017-01-06T03:01:04.943Z,10.81
2017-01-06T03:02:04.905Z,10.81
2017-01-06T03:03:04.818Z,10.81
2017-01-06T03:04:04.755Z,10.81
2017-01-06T03:05:04.705Z,10.81
2017-01-06T03:06:04.651Z,10.91
2017-01-06T03:07:04.577Z,10.81
2017-01-06T03:08:04.526Z,10.72
2017-01-06T03:09:04.455Z,10.81
2017-01-06T03:10:04.384Z,10.81
2017-01-06T03:11:04.328Z,10.81
2017-01-06T03:12:04.266Z,11.1
2017-01-06T03:13:04.207Z,11.1
2017-01-06T03:14:04.146Z,10.81
2017-01-06T03:15:04.072Z,10.81
2017-01-06T03:16:04.009Z,10.91
2017-01-06T03:17:03.947Z,10.91
2017-01-06T03:18:03.884Z,11
2017-01-06T03:19:03.821Z,11.1
2017-01-06T03:20:04.153Z,11
2017-01-06T03:21:03.702Z,11.1
2017-01-06T03:22:03.638Z,10.91
2017-01-06T03:23:03.574Z,11.1
2017-01-06T03:24:03.513Z,10.91
2017-01-06T03:25:03.449Z,11
2017-01-06T03:26:03.390Z,11
2017-01-06T03:27:03.327Z,11.1
2017-01-06T03:28:03.655Z,11.1
2017-01-06T03:29:03.205Z,10.81
2017-01-06T03:30:03.139Z,10.81
2017-01-06T03:31:03.076Z,10.91
2017-01-06T03:32:03.015Z,10.91
2017-01-06T03:33:02.955Z,10.81
2017-01-06T03:34:02.889Z,10.81
2017-01-06T03:35:02.829Z,10.81
2017-01-06T03:36:02.766Z,10.81
2017-01-06T03:37:02.705Z,10.81
2017-01-06T03:38:02.642Z,10.81
2017-01-06T03:39:02.578Z,10.81
2017-01-06T03:40:02.516Z,10.72
2017-01-06T03:41:02.455Z,10.81
2017-01-06T03:42:02.390Z,10.81
2017-01-06T03:43:02.330Z,10.81
2017-01-06T03:44:03.472Z,10.81
2017-01-06T03:45:02.204Z,10.81
2017-01-06T03:46:02.142Z,10.81
2017-01-06T03:47:02.082Z,10.81
2017-01-06T03:48:02.023Z,10.72
2017-01-06T03:49:01.954Z,10.72
2017-01-06T03:50:01.895Z,11.29
2017-01-06T03:51:01.835Z,11.29
2017-01-06T03:52:01.769Z,10.81
2017-01-06T03:53:01.708Z,11.1
2017-01-06T03:54:01.648Z,10.81
2017-01-06T03:55:01.582Z,11.1
2017-01-06T03:56:01.521Z,11
2017-01-06T03:57:01.462Z,10.81
2017-01-06T03:58:01.396Z,11.2
2017-01-06T03:59:01.334Z,11
2017-01-06T04:00:01.295Z,11
2017-01-06T04:01:01.218Z,11.1
2017-01-06T04:02:01.148Z,11.49
2017-01-06T04:03:01.087Z,11.29
2017-01-06T04:04:01.022Z,11.2
2017-01-06T04:05:00.961Z,11.29
2017-01-06T04:06:00.899Z,11.2
2017-01-06T04:07:00.835Z,11.1
2017-01-06T04:08:00.779Z,10.91
2017-01-06T04:09:00.717Z,11
2017-01-06T04:10:00.653Z,11.1
2017-01-06T04:11:00.588Z,11
2017-01-06T04:12:00.531Z,11.1
2017-01-06T04:13:00.465Z,11.2
2017-01-06T04:14:00.405Z,11
2017-01-06T04:15:00.344Z,11.39
2017-01-06T04:16:00.276Z,11.2
2017-01-06T04:17:00.215Z,11
2017-01-06T04:18:00.154Z,11.39
2017-01-06T04:19:00.093Z,11.39
2017-01-06T04:20:00.031Z,11.1
2017-01-06T04:20:59.973Z,11
2017-01-06T04:21:59.903Z,11.39
2017-01-06T04:22:59.842Z,11.1
2017-01-06T04:23:59.782Z,11.29
2017-01-06T04:24:59.718Z,11
2017-01-06T04:25:59.658Z,11.2
2017-01-06T04:26:59.594Z,11.1
2017-01-06T04:27:59.560Z,11.2
2017-01-06T04:28:59.471Z,11.29
2017-01-06T04:29:59.411Z,11.29
2017-01-06T04:30:59.347Z,11
2017-01-06T04:31:59.285Z,11
2017-01-06T04:32:59.234Z,11.39
2017-01-06T04:33:59.162Z,11.1
2017-01-06T04:34:59.101Z,11
2017-01-06T04:35:59.038Z,11
2017-01-06T04:36:58.976Z,11
2017-01-06T04:37:58.915Z,11.1
2017-01-06T04:38:58.854Z,11.1
2017-01-06T04:39:58.793Z,11.1
2017-01-06T04:40:58.729Z,11.1
2017-01-06T04:41:58.667Z,11
2017-01-06T04:42:58.602Z,11.1
2017-01-06T04:43:58.539Z,11.39
2017-01-06T04:44:58.480Z,11.2
2017-01-06T04:45:58.419Z,11.39
2017-01-06T04:46:58.358Z,11.68
2017-01-06T04:47:58.294Z,11.68
2017-01-06T04:48:58.233Z,11.58
2017-01-06T04:49:58.171Z,11.78
2017-01-06T04:50:58.109Z,11.58
2017-01-06T04:51:58.048Z,11.78
2017-01-06T04:52:57.986Z,11.58
2017-01-06T04:53:57.920Z,11.97
2017-01-06T04:54:57.859Z,11.87
2017-01-06T04:55:57.797Z,11.87
2017-01-06T04:56:57.738Z,11.97
2017-01-06T04:57:57.674Z,11.87
2017-01-06T04:58:57.614Z,11.68
2017-01-06T04:59:57.551Z,11.87
2017-01-06T05:00:57.493Z,11.68
2017-01-06T05:01:57.430Z,11.68
2017-01-06T05:02:57.365Z,12.16
2017-01-06T05:03:57.313Z,11.78
2017-01-06T05:04:57.241Z,11.68
2017-01-06T05:05:57.177Z,11.49
2017-01-06T05:06:57.116Z,11.78
2017-01-06T05:07:57.054Z,11.78
2017-01-06T05:08:56.992Z,11.68
2017-01-06T05:09:56.931Z,11.78
2017-01-06T05:10:56.870Z,11.78
2017-01-06T05:11:56.807Z,11.58
2017-01-06T05:12:56.744Z,11.87
2017-01-06T05:13:56.680Z,11.58
2017-01-06T05:14:56.620Z,11.58
2017-01-06T05:15:56.559Z,11.87
2017-01-06T05:16:56.494Z,11.87
2017-01-06T05:17:56.434Z,11.68
2017-01-06T05:18:56.374Z,11.97
2017-01-06T05:19:56.310Z,11.87
2017-01-06T05:20:56.249Z,11.97
2017-01-06T05:21:56.187Z,11.78
2017-01-06T05:22:56.127Z,11.49
2017-01-06T05:23:56.061Z,11.29
2017-01-06T05:24:56.001Z,11
2017-01-06T05:25:55.938Z,11.1
2017-01-06T05:26:55.883Z,11.1
2017-01-06T05:27:55.812Z,11.2
2017-01-06T05:28:55.755Z,11.1
2017-01-06T05:29:55.689Z,10.91
2017-01-06T05:30:55.626Z,11.29
2017-01-06T05:31:55.563Z,11.29
2017-01-06T05:32:55.504Z,11.1
2017-01-06T05:33:55.441Z,11.39
2017-01-06T05:34:55.380Z,11.1
2017-01-06T05:35:55.317Z,11.1
2017-01-06T05:36:55.255Z,11.1
2017-01-06T05:37:55.194Z,11
2017-01-06T05:38:55.130Z,11.1
2017-01-06T05:39:55.070Z,11.1
2017-01-06T05:40:55.006Z,11.29
2017-01-06T05:41:54.944Z,11
2017-01-06T05:42:54.881Z,11.29
2017-01-06T05:43:54.824Z,10.91
2017-01-06T05:44:54.760Z,11.1
2017-01-06T05:45:54.697Z,10.81
2017-01-06T05:46:54.635Z,11
2017-01-06T05:47:54.572Z,10.81
2017-01-06T05:48:54.511Z,11.1
2017-01-06T05:49:54.454Z,11
2017-01-06T05:50:54.386Z,10.81
2017-01-06T05:51:54.326Z,10.72
2017-01-06T05:52:54.261Z,10.42
2017-01-06T05:53:54.198Z,10.81
2017-01-06T05:54:54.139Z,10.72
2017-01-06T05:55:54.079Z,10.72
2017-01-06T05:56:54.013Z,10.52
2017-01-06T05:57:53.952Z,10.42
2017-01-06T05:58:53.889Z,10.52
2017-01-06T05:59:53.831Z,10.52
2017-01-06T06:00:53.766Z,10.52
2017-01-06T06:01:53.703Z,10.52
2017-01-06T06:02:53.643Z,10.23
2017-01-06T06:03:53.579Z,10.33
2017-01-06T06:04:53.516Z,10.33
2017-01-06T06:05:53.454Z,10.23
2017-01-06T06:06:53.395Z,10.23
2017-01-06T06:07:53.331Z,10.23
2017-01-06T06:08:53.268Z,10.33
2017-01-06T06:09:53.206Z,10.23
2017-01-06T06:10:53.142Z,10.14
2017-01-06T06:11:53.079Z,9.66
2017-01-06T06:12:53.022Z,9.84
2017-01-06T06:13:52.959Z,9.75
2017-01-06T06:14:52.896Z,9.75
2017-01-06T06:15:52.834Z,9.84
2017-01-06T06:16:52.770Z,9.75
2017-01-06T06:17:52.708Z,9.84
2017-01-06T06:18:52.644Z,10.04
2017-01-06T06:19:52.583Z,9.75
2017-01-06T06:20:52.523Z,9.75
2017-01-06T06:21:52.459Z,9.65
2017-01-06T06:22:52.396Z,9.94
2017-01-06T06:23:52.334Z,9.94
2017-01-06T06:24:52.273Z,9.94
2017-01-06T06:25:52.209Z,9.94
2017-01-06T06:26:52.146Z,9.84
2017-01-06T06:27:52.087Z,9.46
2017-01-06T06:28:52.020Z,9.56
2017-01-06T06:29:51.964Z,9.56
2017-01-06T06:30:51.899Z,9.84
2017-01-06T06:31:51.837Z,9.46
2017-01-06T06:32:51.771Z,9.27
2017-01-06T06:33:51.710Z,9.36
2017-01-06T06:34:51.650Z,9.17
2017-01-06T06:35:51.587Z,9.36
2017-01-06T06:36:51.525Z,9.27
2017-01-06T06:37:51.465Z,9.17
2017-01-06T06:38:51.400Z,9.27
2017-01-06T06:39:51.335Z,9.36
2017-01-06T06:40:51.274Z,9.27
2017-01-06T06:41:51.213Z,9.17
2017-01-06T06:42:51.149Z,8.78
2017-01-06T06:43:51.085Z,8.69
2017-01-06T06:44:51.024Z,8.4
2017-01-06T06:45:50.964Z,8.69
2017-01-06T06:46:50.901Z,8.59
2017-01-06T06:47:50.838Z,8.59
2017-01-06T06:48:50.779Z,8.59
2017-01-06T06:49:50.712Z,8.59
2017-01-06T06:50:50.651Z,8.5
2017-01-06T06:51:50.589Z,8.59
2017-01-06T06:52:50.529Z,8.59
2017-01-06T06:53:50.466Z,8.69
2017-01-06T06:54:50.791Z,8.5
2017-01-06T06:55:50.340Z,8.2
2017-01-06T06:56:50.685Z,8.3
2017-01-06T06:57:50.217Z,8.5
2017-01-06T06:58:50.153Z,8.4
2017-01-06T06:59:50.093Z,8.3
2017-01-06T07:00:50.031Z,8.5
2017-01-06T07:01:49.969Z,8.5
2017-01-06T07:02:49.917Z,8.3
2017-01-06T07:03:49.844Z,8.4
2017-01-06T07:04:49.788Z,8.2
2017-01-06T07:05:49.718Z,8.5
2017-01-06T07:06:49.657Z,8.4
2017-01-06T07:07:49.603Z,8.3
2017-01-06T07:08:49.925Z,8.5
2017-01-06T07:09:49.472Z,8.5
2017-01-06T07:10:49.411Z,8.4
2017-01-06T07:11:49.377Z,8.59
2017-01-06T07:12:49.285Z,8.4
2017-01-06T07:13:49.223Z,8.59
2017-01-06T07:14:49.162Z,8.3
2017-01-06T07:15:49.098Z,8.59
2017-01-06T07:16:49.038Z,8.3
2017-01-06T07:17:48.978Z,8.3
2017-01-06T07:18:48.914Z,8.11
2017-01-06T07:19:48.855Z,8.4
2017-01-06T07:20:48.788Z,8.3
2017-01-06T07:21:48.729Z,8.11
2017-01-06T07:22:48.669Z,8.4
2017-01-06T07:23:48.605Z,8.3
2017-01-06T07:24:48.541Z,8.3
2017-01-06T07:25:48.481Z,8.2
2017-01-06T07:26:48.420Z,8.3
2017-01-06T07:27:48.358Z,8.11
2017-01-06T07:28:48.331Z,8.2
2017-01-06T07:29:48.235Z,8.3
2017-01-06T07:30:48.171Z,8.01
2017-01-06T07:31:48.113Z,8.4
2017-01-06T07:32:48.049Z,8.3
2017-01-06T07:33:47.985Z,7.82
2017-01-06T07:34:47.925Z,7.92
2017-01-06T07:35:47.860Z,8.01
2017-01-06T07:36:47.800Z,8.01
2017-01-06T07:37:47.738Z,8.11
2017-01-06T07:38:47.685Z,8.4
2017-01-06T07:39:47.613Z,8.3
2017-01-06T07:40:47.552Z,8.3
2017-01-06T07:41:47.490Z,8.2
2017-01-06T07:42:47.427Z,8.11
2017-01-06T07:43:47.368Z,8.3
2017-01-06T07:44:47.303Z,8.2
2017-01-06T07:45:47.245Z,8.2
2017-01-06T07:46:47.180Z,8.2
2017-01-06T07:47:47.119Z,7.92
2017-01-06T07:48:47.054Z,8.3
2017-01-06T07:49:46.992Z,8.3
2017-01-06T07:50:46.929Z,8.5
2017-01-06T07:51:46.868Z,8.59
2017-01-06T07:52:46.805Z,8.3
2017-01-06T07:53:46.753Z,8.4
2017-01-06T07:54:47.075Z,8.4
2017-01-06T07:55:46.641Z,8.2
2017-01-06T07:56:46.558Z,8.59
2017-01-06T07:57:46.495Z,8.69
2017-01-06T07:58:46.432Z,8.5
2017-01-06T07:59:46.372Z,8.11
2017-01-06T08:00:46.316Z,8.4
2017-01-06T08:01:46.247Z,8.5
2017-01-06T08:02:46.184Z,8.4
2017-01-06T08:03:46.129Z,8.3
2017-01-06T08:04:46.062Z,8.4
2017-01-06T08:05:46.004Z,8.3
2017-01-06T08:06:45.940Z,8.69
2017-01-06T08:07:45.876Z,8.69
2017-01-06T08:08:45.817Z,8.2
2017-01-06T08:09:45.753Z,8.11
2017-01-06T08:10:45.688Z,8.2
2017-01-06T08:11:45.628Z,8.3
2017-01-06T08:12:45.568Z,8.2
2017-01-06T08:13:45.505Z,8.2
2017-01-06T08:14:45.467Z,8.3
2017-01-06T08:15:45.379Z,7.82
2017-01-06T08:16:45.320Z,7.92
2017-01-06T08:17:45.256Z,8.5
2017-01-06T08:18:45.194Z,8.4
2017-01-06T08:19:45.133Z,8.2
2017-01-06T08:20:45.224Z,8.11
2017-01-06T08:21:45.009Z,8.2
2017-01-06T08:22:44.944Z,8.11
2017-01-06T08:23:44.891Z,8.11
2017-01-06T08:24:44.822Z,7.82
2017-01-06T08:25:44.760Z,7.92
2017-01-06T08:26:44.698Z,7.72
2017-01-06T08:27:44.635Z,7.92
2017-01-06T08:28:44.575Z,7.92
2017-01-06T08:29:44.509Z,7.72
2017-01-06T08:30:44.449Z,7.62
2017-01-06T08:31:44.385Z,7.43
2017-01-06T08:32:44.333Z,7.43
2017-01-06T08:33:44.262Z,7.62
2017-01-06T08:34:44.199Z,7.53
2017-01-06T08:35:44.145Z,7.34
2017-01-06T08:36:44.076Z,7.43
2017-01-06T08:37:44.011Z,7.34
2017-01-06T08:38:44.344Z,7.24
2017-01-06T08:39:43.892Z,7.34
2017-01-06T08:40:43.828Z,7.43
2017-01-06T08:41:43.766Z,7.53
2017-01-06T08:42:43.704Z,7.43
2017-01-06T08:43:43.644Z,7.34
2017-01-06T08:44:43.577Z,7.43
2017-01-06T08:45:43.518Z,7.34
2017-01-06T08:46:43.456Z,7.53
2017-01-06T08:47:43.393Z,7.53
2017-01-06T08:48:43.329Z,7.53
2017-01-06T08:49:43.268Z,7.53
2017-01-06T08:50:43.208Z,7.34
2017-01-06T08:51:43.144Z,7.53
2017-01-06T08:52:43.081Z,7.62
2017-01-06T08:53:43.022Z,7.62
2017-01-06T08:54:42.957Z,7.62
2017-01-06T08:55:42.894Z,7.62
2017-01-06T08:56:42.834Z,7.34
2017-01-06T08:57:42.773Z,7.24
2017-01-06T08:58:42.707Z,7.24
2017-01-06T08:59:42.647Z,7.34
2017-01-06T09:00:42.585Z,7.92
2017-01-06T09:01:42.522Z,7.24
2017-01-06T09:02:42.460Z,7.04
2017-01-06T09:03:42.399Z,7.72
2017-01-06T09:04:42.346Z,7.72
2017-01-06T09:05:42.274Z,8.01
2017-01-06T09:06:42.211Z,8.3
2017-01-06T09:07:42.149Z,8.4
2017-01-06T09:08:42.202Z,8.59
2017-01-06T09:09:42.090Z,8.4
2017-01-06T09:10:42.089Z,8.98
2017-01-06T09:11:41.984Z,9.46
2017-01-06T09:12:41.901Z,9.56
2017-01-06T09:13:41.867Z,9.66
2017-01-06T09:14:41.801Z,10.33
2017-01-06T09:15:41.717Z,10.42
2017-01-06T09:16:41.636Z,10.72
2017-01-06T09:17:41.599Z,10.72
2017-01-06T09:18:41.537Z,11.1
2017-01-06T09:19:41.486Z,11.49
2017-01-06T09:20:41.414Z,11.78
2017-01-06T09:21:41.366Z,11.97
2017-01-06T09:22:41.283Z,11.87
2017-01-06T09:23:41.319Z,12.26
2017-01-06T09:24:41.180Z,12.36
2017-01-06T09:25:41.116Z,12.74
2017-01-06T09:26:40.971Z,12.45
2017-01-06T09:27:40.906Z,12.93
2017-01-06T09:28:40.846Z,12.74
2017-01-06T09:29:40.784Z,13.13
2017-01-06T09:30:40.719Z,13.13
2017-01-06T09:31:40.657Z,13.03
2017-01-06T09:32:40.595Z,13.23
2017-01-06T09:33:40.533Z,13.9
2017-01-06T09:34:40.472Z,14
2017-01-06T09:35:40.419Z,14.48
2017-01-06T09:36:40.345Z,14.39
2017-01-06T09:37:40.303Z,14.48
2017-01-06T09:38:40.222Z,15.06
2017-01-06T09:39:40.162Z,14.67
2017-01-06T09:40:40.100Z,15.06
2017-01-06T09:41:40.036Z,15.25
2017-01-06T09:42:39.975Z,14.67
2017-01-06T09:43:39.913Z,15.55
2017-01-06T09:44:39.851Z,15.64
2017-01-06T09:45:39.792Z,15.73
2017-01-06T09:46:39.725Z,15.73
2017-01-06T09:47:39.667Z,16.12
2017-01-06T09:48:39.608Z,15.93
2017-01-06T09:49:39.539Z,16.03
2017-01-06T09:50:39.506Z,16.31
2017-01-06T09:51:39.420Z,16.41
2017-01-06T09:52:39.365Z,16.61
2017-01-06T09:53:39.294Z,16.61
2017-01-06T09:54:39.243Z,16.61
2017-01-06T09:55:39.191Z,16.89
2017-01-06T09:56:39.115Z,16.89
2017-01-06T09:57:39.048Z,16.89
2017-01-06T09:58:38.985Z,17.09
2017-01-06T09:59:38.923Z,17.38
2017-01-06T10:00:39.112Z,17.19
2017-01-06T10:01:38.798Z,17.47
2017-01-06T10:02:38.734Z,17.76
2017-01-06T10:03:38.682Z,18.05
2017-01-06T10:04:38.614Z,18.44
2017-01-06T10:05:38.603Z,18.15
2017-01-06T10:06:38.559Z,18.63
2017-01-06T10:07:38.506Z,18.54
2017-01-06T10:08:38.439Z,18.15
2017-01-06T10:09:38.385Z,17.28
2017-01-06T10:10:38.304Z,16.99
2017-01-06T10:11:38.259Z,15.93
2017-01-06T10:12:38.209Z,16.03
2017-01-06T10:13:38.151Z,15.64
2017-01-06T10:14:38.087Z,15.16
2017-01-06T10:15:37.993Z,15.06
2017-01-06T10:16:37.937Z,14.67
2017-01-06T10:17:37.888Z,14.39
2017-01-06T10:18:37.823Z,14.39
2017-01-06T10:19:37.753Z,13.61
2017-01-06T10:20:37.667Z,13.61
2017-01-06T10:21:38.021Z,13.71
2017-01-06T10:22:37.542Z,13.32
2017-01-06T10:23:37.497Z,13.23
2017-01-06T10:24:37.490Z,13.13
2017-01-06T10:25:37.370Z,13.23
2017-01-06T10:26:37.366Z,12.84
2017-01-06T10:27:37.240Z,12.55
2017-01-06T10:28:37.214Z,12.74
2017-01-06T10:29:37.066Z,12.36
2017-01-06T10:30:37.003Z,12.45
2017-01-06T10:31:36.943Z,12.07
2017-01-06T10:32:36.891Z,12.07
2017-01-06T10:33:36.820Z,11.58
2017-01-06T10:34:36.757Z,11.78
2017-01-06T10:35:36.693Z,11.58
2017-01-06T10:36:36.652Z,11.49
2017-01-06T10:37:36.568Z,11
2017-01-06T10:38:36.513Z,11.2
2017-01-06T10:39:36.445Z,11.1
2017-01-06T10:40:36.387Z,10.81
2017-01-06T10:41:36.321Z,10.91
2017-01-06T10:42:36.317Z,10.81
2017-01-06T10:43:36.225Z,10.52
2017-01-06T10:44:36.211Z,10.72
2017-01-06T10:45:36.075Z,10.72
2017-01-06T10:46:36.025Z,10.52
2017-01-06T10:47:35.955Z,10.23
2017-01-06T10:48:35.900Z,10.52
2017-01-06T10:49:35.830Z,10.23
2017-01-06T10:50:35.766Z,10.33
2017-01-06T10:51:35.717Z,10.14
2017-01-06T10:52:35.641Z,10.33
2017-01-06T10:53:35.587Z,9.75
2017-01-06T10:54:35.520Z,9.84
2017-01-06T10:55:35.455Z,9.84
2017-01-06T10:56:35.393Z,9.84
2017-01-06T10:57:35.334Z,9.66
2017-01-06T10:58:35.268Z,9.75
2017-01-06T10:59:35.210Z,9.84
2017-01-06T11:00:35.144Z,9.46
2017-01-06T11:01:35.082Z,9.56
2017-01-06T11:02:35.025Z,9.36
2017-01-06T11:03:34.961Z,9.56
2017-01-06T11:04:34.898Z,9.56
2017-01-06T11:05:34.859Z,9.56
2017-01-06T11:06:34.771Z,9.36
2017-01-06T11:07:34.710Z,9.46
2017-01-06T11:08:34.646Z,9.36
2017-01-06T11:09:34.588Z,9.56
2017-01-06T11:10:34.526Z,9.36
2017-01-06T11:11:34.460Z,9.27
2017-01-06T11:12:34.408Z,9.27
2017-01-06T11:13:34.336Z,8.88
2017-01-06T11:14:34.273Z,9.46
2017-01-06T11:15:34.214Z,9.08
2017-01-06T11:16:34.150Z,9.17
2017-01-06T11:17:34.088Z,9.17
2017-01-06T11:18:34.026Z,9.27
2017-01-06T11:19:33.974Z,9.17
2017-01-06T11:20:33.913Z,9.27
2017-01-06T11:21:33.841Z,8.69
2017-01-06T11:22:33.779Z,9.36
2017-01-06T11:23:33.715Z,9.27
2017-01-06T11:24:33.650Z,9.27
2017-01-06T11:25:33.852Z,8.98
2017-01-06T11:26:33.528Z,9.17
2017-01-06T11:27:33.468Z,9.08
2017-01-06T11:28:33.405Z,8.88
2017-01-06T11:29:33.341Z,8.69
2017-01-06T11:30:33.280Z,8.88
2017-01-06T11:31:33.219Z,8.59
2017-01-06T11:32:33.550Z,8.59
2017-01-06T11:33:33.094Z,8.69
2017-01-06T11:34:33.031Z,9.08
2017-01-06T11:35:33.358Z,8.98
2017-01-06T11:36:32.913Z,9.08
2017-01-06T11:37:32.851Z,9.27
2017-01-06T11:38:32.783Z,8.98
2017-01-06T11:39:32.722Z,9.36
2017-01-06T11:40:32.656Z,9.46
2017-01-06T11:41:32.596Z,9.75
2017-01-06T11:42:32.538Z,9.36
2017-01-06T11:43:32.474Z,9.56
2017-01-06T11:44:32.410Z,10.04
2017-01-06T11:45:32.349Z,9.66
2017-01-06T11:46:32.282Z,9.66
2017-01-06T11:47:32.221Z,10.33
2017-01-06T11:48:32.159Z,10.52
2017-01-06T11:49:32.098Z,10.62
2017-01-06T11:50:32.037Z,10.23
2017-01-06T11:51:31.972Z,10.14
2017-01-06T11:52:31.912Z,10.23
2017-01-06T11:53:31.850Z,10.42
2017-01-06T11:54:31.790Z,10.52
2017-01-06T11:55:31.724Z,10.52
2017-01-06T11:56:31.665Z,10.72
2017-01-06T11:57:31.599Z,10.42
2017-01-06T11:58:31.538Z,10.42
2017-01-06T11:59:31.562Z,10.91
2017-01-06T12:00:31.415Z,10.91
2017-01-06T12:01:31.422Z,11.1
2017-01-06T12:02:31.292Z,11
2017-01-06T12:03:31.286Z,10.91
2017-01-06T12:04:31.185Z,10.81
2017-01-06T12:05:31.124Z,11.2
2017-01-06T12:06:31.093Z,11.39
2017-01-06T12:07:31.401Z,11.1
2017-01-06T12:08:30.963Z,11.39
2017-01-06T12:09:30.854Z,11.58
2017-01-06T12:10:30.891Z,11.58
2017-01-06T12:11:30.732Z,11.68
2017-01-06T12:12:30.668Z,11.78
2017-01-06T12:13:30.603Z,11.97
2017-01-06T12:14:30.543Z,11.78
2017-01-06T12:15:30.479Z,11.87
2017-01-06T12:16:30.420Z,11.97
2017-01-06T12:17:30.359Z,11.87
2017-01-06T12:18:30.394Z,11.78
2017-01-06T12:19:30.360Z,11.68
2017-01-06T12:20:30.270Z,11.78
2017-01-06T12:21:30.212Z,12.16
2017-01-06T12:22:30.249Z,11.97
2017-01-06T12:23:30.072Z,12.07
2017-01-06T12:24:29.989Z,12.16
2017-01-06T12:25:29.988Z,11.78
2017-01-06T12:26:30.282Z,11.97
2017-01-06T12:27:29.880Z,11.87
2017-01-06T12:28:29.675Z,12.45
2017-01-06T12:29:29.643Z,12.26
2017-01-06T12:30:29.550Z,11.97
2017-01-06T12:31:29.490Z,12.16
2017-01-06T12:32:29.426Z,12.26
2017-01-06T12:33:29.366Z,12.16
2017-01-06T12:34:29.300Z,11.87
2017-01-06T12:35:29.241Z,11.97
2017-01-06T12:36:29.203Z,12.36
2017-01-06T12:37:29.114Z,12.45
2017-01-06T12:38:29.053Z,12.36
2017-01-06T12:39:28.998Z,12.84
2017-01-06T12:40:28.931Z,12.84
2017-01-06T12:41:28.868Z,12.55
2017-01-06T12:42:28.807Z,12.55
2017-01-06T12:43:28.753Z,12.65
2017-01-06T12:44:28.684Z,12.65
2017-01-06T12:45:28.624Z,12.65
2017-01-06T12:46:28.558Z,12.45
2017-01-06T12:47:28.496Z,12.36
2017-01-06T12:48:28.436Z,12.55
2017-01-06T12:49:28.371Z,12.55
2017-01-06T12:50:28.309Z,12.45
2017-01-06T12:51:28.272Z,12.65
2017-01-06T12:52:28.186Z,12.93
2017-01-06T12:53:28.123Z,13.03
2017-01-06T12:54:28.061Z,12.84
2017-01-06T12:55:28.002Z,12.84
2017-01-06T12:56:27.937Z,12.84
2017-01-06T12:57:27.880Z,13.13
2017-01-06T12:58:27.815Z,12.84
2017-01-06T12:59:27.753Z,12.84
2017-01-06T13:00:27.691Z,12.45
2017-01-06T13:01:27.628Z,11.29
2017-01-06T13:02:27.566Z,10.72
2017-01-06T13:03:27.504Z,10.62
2017-01-06T13:04:27.440Z,10.52
2017-01-06T13:05:27.382Z,10.61
2017-01-06T13:06:27.320Z,10.33
2017-01-06T13:07:27.253Z,10.33